Time,TemperatureF,DewpointF,PressureIn,WindDirection,WindDirectionDegrees,WindSpeedMPH,WindSpeedGustMPH,Humidity,HourlyPrecipIn,Conditions,Clouds,dailyrainin,SoftwareType,DateUTC
2013-08-24 00:00:00,72.2,71.3,30.00,ESE,113,0.0,0.0,97,0.00,,SKC,0.00,VWS V13.00,2013-08-24 05:00:00,
2013-08-24 00:01:00,72.2,71.3,30.00,ESE,113,0.0,0.0,97,0.00,,SKC,0.00,VWS V13.00,2013-08-24 05:01:00,
2013-08-24 00:06:00,72.4,71.5,30.00,ESE,113,0.0,0.0,97,0.00,,SKC,0.00,VWS V13.00,2013-08-24 05:06:00,
2013-08-24 00:11:00,72.7,71.5,30.00,SSE,158,0.0,0.0,96,0.00,,SKC,0.00,VWS V13.00,2013-08-24 05:11:00,
2013-08-24 00:16:00,72.8,71.3,30.00,South,179,0.0,0.0,95,0.00,,SKC,0.00,VWS V13.00,2013-08-24 05:16:00,
2013-08-24 00:21:00,72.9,71.4,30.00,SSE,162,0.0,0.0,95,0.00,,SKC,0.00,VWS V13.00,2013-08-24 05:21:00,
2013-08-24 00:26:00,72.9,71.1,30.00,SSE,162,0.0,0.0,94,0.00,,SKC,0.00,VWS V13.00,2013-08-24 05:26:00,
2013-08-24 00:30:00,72.9,71.4,30.00,SSE,162,0.0,0.0,95,0.00,,SKC,0.00,VWS V13.00,2013-08-24 05:30:00,
2013-08-24 00:31:00,72.9,71.4,30.00,SSE,162,0.0,0.0,95,0.00,,SKC,0.00,VWS V13.00,2013-08-24 05:31:00,
2013-08-24 00:36:00,72.8,71.0,30.00,SSE,162,0.0,0.0,94,0.00,,SKC,0.00,VWS V13.00,2013-08-24 05:36:00,
2013-08-24 00:41:00,72.7,70.9,30.00,SSE,162,0.0,0.0,94,0.00,,SKC,0.00,VWS V13.00,2013-08-24 05:41:00,
2013-08-24 00:46:00,72.2,70.4,30.00,SSE,162,0.0,0.0,94,0.00,,SKC,0.00,VWS V13.00,2013-08-24 05:46:00,
2013-08-24 00:51:00,71.9,70.1,30.00,SSE,162,0.0,0.0,94,0.00,,SKC,0.00,VWS V13.00,2013-08-24 05:51:00,
2013-08-24 00:56:00,71.7,70.2,30.00,SSE,162,0.0,0.0,95,0.00,,SKC,0.00,VWS V13.00,2013-08-24 05:56:00,
2013-08-24 01:00:00,71.4,69.9,30.00,SSE,162,0.0,0.0,95,0.00,,SKC,0.00,VWS V13.00,2013-08-24 06:00:00,
2013-08-24 01:01:00,71.5,70.0,30.00,SSE,162,0.0,0.0,95,0.00,,SKC,0.00,VWS V13.00,2013-08-24 06:01:00,
2013-08-24 01:06:00,71.1,69.6,30.00,SSE,162,0.0,0.0,95,0.00,,SKC,0.00,VWS V13.00,2013-08-24 06:06:00,
2013-08-24 01:11:00,70.9,69.7,30.00,SSE,162,0.0,0.0,96,0.00,,SKC,0.00,VWS V13.00,2013-08-24 06:11:00,
2013-08-24 01:16:00,70.8,69.6,30.00,SSE,162,0.0,0.0,96,0.00,,SKC,0.00,VWS V13.00,2013-08-24 06:16:00,
2013-08-24 01:21:00,70.7,69.8,30.00,SSE,162,0.0,0.0,97,0.00,,SKC,0.00,VWS V13.00,2013-08-24 06:21:00,
2013-08-24 01:26:00,70.7,69.8,30.00,SSE,162,0.0,0.0,97,0.00,,SKC,0.00,VWS V13.00,2013-08-24 06:26:00,
2013-08-24 01:30:00,70.5,69.6,30.00,SSE,162,0.0,0.0,97,0.00,,SKC,0.00,VWS V13.00,2013-08-24 06:30:00,
2013-08-24 01:31:00,70.6,69.7,30.00,SSE,162,0.0,0.0,97,0.00,,SKC,0.00,VWS V13.00,2013-08-24 06:31:00,
2013-08-24 01:36:00,70.5,69.6,30.00,SSE,162,0.0,0.0,97,0.00,,SKC,0.00,VWS V13.00,2013-08-24 06:36:00,
2013-08-24 01:41:00,70.5,69.9,30.00,SSE,162,0.0,0.0,98,0.00,,SKC,0.00,VWS V13.00,2013-08-24 06:41:00,
2013-08-24 01:46:00,70.4,69.8,30.00,SSE,162,0.0,0.0,98,0.00,,SKC,0.00,VWS V13.00,2013-08-24 06:46:00,
2013-08-24 01:51:00,70.4,69.8,30.00,SSE,162,0.0,0.0,98,0.00,,SKC,0.00,VWS V13.00,2013-08-24 06:51:00,
2013-08-24 01:56:00,70.3,69.4,30.00,SSE,162,0.0,0.0,97,0.00,,SKC,0.00,VWS V13.00,2013-08-24 06:56:00,
2013-08-24 02:00:00,70.3,69.7,30.00,SSE,162,0.0,0.0,98,0.00,,SKC,0.00,VWS V13.00,2013-08-24 07:00:00,
2013-08-24 02:01:00,70.3,69.7,30.00,SSE,162,0.0,0.0,98,0.00,,SKC,0.00,VWS V13.00,2013-08-24 07:01:00,
2013-08-24 02:06:00,70.2,69.6,30.00,SSE,162,0.0,0.0,98,0.00,,SKC,0.00,VWS V13.00,2013-08-24 07:06:00,
2013-08-24 02:11:00,70.1,69.5,30.00,SSE,162,0.0,0.0,98,0.00,,SKC,0.00,VWS V13.00,2013-08-24 07:11:00,
2013-08-24 02:16:00,70.0,69.4,30.00,SSE,162,0.0,0.0,98,0.00,,SKC,0.00,VWS V13.00,2013-08-24 07:16:00,
2013-08-24 02:21:00,69.9,69.3,30.00,SSE,162,0.0,0.0,98,0.00,,SKC,0.00,VWS V13.00,2013-08-24 07:21:00,
2013-08-24 02:26:00,69.8,69.2,30.01,SSE,162,0.0,0.0,98,0.00,,SKC,0.00,VWS V13.00,2013-08-24 07:26:00,
2013-08-24 02:30:00,69.9,69.3,30.01,SSE,162,0.0,0.0,98,0.00,,SKC,0.00,VWS V13.00,2013-08-24 07:30:00,
2013-08-24 02:31:00,69.9,69.3,30.01,SSE,162,0.0,0.0,98,0.00,,SKC,0.00,VWS V13.00,2013-08-24 07:31:00,
2013-08-24 02:36:00,69.9,69.3,30.00,SSE,162,0.0,0.0,98,0.00,,SKC,0.00,VWS V13.00,2013-08-24 07:36:00,
2013-08-24 02:41:00,69.8,69.2,30.00,SSE,162,0.0,0.0,98,0.00,,SKC,0.00,VWS V13.00,2013-08-24 07:41:00,
2013-08-24 02:46:00,69.7,69.1,30.00,SSE,162,0.0,0.0,98,0.00,,SKC,0.00,VWS V13.00,2013-08-24 07:46:00,
2013-08-24 02:51:00,69.5,68.9,30.00,SSE,162,0.0,0.0,98,0.00,,SKC,0.00,VWS V13.00,2013-08-24 07:51:00,
2013-08-24 02:56:00,69.3,68.7,30.00,SSE,162,0.0,0.0,98,0.00,,SKC,0.00,VWS V13.00,2013-08-24 07:56:00,
2013-08-24 03:00:00,69.1,68.5,30.00,SSE,162,0.0,0.0,98,0.00,,SKC,0.00,VWS V13.00,2013-08-24 08:00:00,
2013-08-24 03:01:00,69.1,68.5,30.00,SSE,162,0.0,0.0,98,0.00,,SKC,0.00,VWS V13.00,2013-08-24 08:01:00,
2013-08-24 03:06:00,69.0,68.4,30.00,SSE,162,0.0,0.0,98,0.00,,SKC,0.00,VWS V13.00,2013-08-24 08:06:00,
2013-08-24 03:11:00,69.1,68.5,30.00,SSE,162,0.0,0.0,98,0.00,,SKC,0.00,VWS V13.00,2013-08-24 08:11:00,
2013-08-24 03:16:00,69.1,68.5,30.00,SSE,162,0.0,0.0,98,0.00,,SKC,0.00,VWS V13.00,2013-08-24 08:16:00,
2013-08-24 03:21:00,69.3,69.0,30.00,SSE,162,0.0,0.0,99,0.00,,SKC,0.00,VWS V13.00,2013-08-24 08:21:00,
2013-08-24 03:25:00,69.2,68.6,30.00,SE,132,0.0,0.0,98,0.00,,SKC,0.00,VWS V13.00,2013-08-24 08:25:00,
2013-08-24 03:30:00,69.0,68.4,30.00,SE,132,0.0,0.0,98,0.00,,SKC,0.00,VWS V13.00,2013-08-24 08:30:00,
2013-08-24 03:35:00,68.9,68.3,30.00,SE,132,0.0,0.0,98,0.00,,SKC,0.00,VWS V13.00,2013-08-24 08:35:00,
2013-08-24 03:40:00,68.8,68.2,30.00,SE,132,0.0,0.0,98,0.00,,SKC,0.00,VWS V13.00,2013-08-24 08:40:00,
2013-08-24 03:45:00,68.8,68.2,30.00,SE,132,0.0,0.0,98,0.00,,SKC,0.00,VWS V13.00,2013-08-24 08:45:00,
2013-08-24 03:50:00,68.8,68.2,30.00,SE,127,0.0,0.0,98,0.00,,SKC,0.00,VWS V13.00,2013-08-24 08:50:00,
2013-08-24 03:55:00,68.6,68.0,30.01,SE,127,0.0,0.0,98,0.00,,SKC,0.00,VWS V13.00,2013-08-24 08:55:00,
2013-08-24 04:00:00,68.6,68.0,30.01,SE,127,0.0,0.0,98,0.00,,SKC,0.00,VWS V13.00,2013-08-24 09:00:00,
2013-08-24 04:05:00,68.6,68.0,30.01,SE,127,0.0,0.0,98,0.00,,SKC,0.00,VWS V13.00,2013-08-24 09:05:00,
2013-08-24 04:10:00,68.6,68.3,30.01,SE,127,0.0,0.0,99,0.00,,SKC,0.00,VWS V13.00,2013-08-24 09:10:00,
2013-08-24 04:15:00,68.7,68.4,30.01,SE,127,0.0,0.0,99,0.00,,SKC,0.00,VWS V13.00,2013-08-24 09:15:00,
2013-08-24 04:20:00,68.6,68.0,30.01,SE,127,0.0,0.0,98,0.00,,SKC,0.00,VWS V13.00,2013-08-24 09:20:00,
2013-08-24 04:25:00,68.6,68.3,30.02,SE,127,0.0,0.0,99,0.00,,SKC,0.00,VWS V13.00,2013-08-24 09:25:00,
2013-08-24 04:30:00,68.5,68.2,30.02,SE,127,0.0,0.0,99,0.00,,SKC,0.00,VWS V13.00,2013-08-24 09:30:00,
2013-08-24 04:35:00,68.4,67.8,30.02,SE,127,0.0,0.0,98,0.00,,SKC,0.00,VWS V13.00,2013-08-24 09:35:00,
2013-08-24 04:40:00,68.6,68.3,30.02,SE,127,0.0,0.0,99,0.00,,SKC,0.00,VWS V13.00,2013-08-24 09:40:00,
2013-08-24 04:45:00,68.6,68.3,30.02,SE,127,0.0,0.0,99,0.00,,SKC,0.00,VWS V13.00,2013-08-24 09:45:00,
2013-08-24 04:50:00,68.5,68.2,30.02,SE,127,0.0,0.0,99,0.00,,SKC,0.00,VWS V13.00,2013-08-24 09:50:00,
2013-08-24 04:55:00,68.3,67.7,30.03,SE,127,0.0,0.0,98,0.00,,SKC,0.00,VWS V13.00,2013-08-24 09:55:00,
2013-08-24 05:00:00,67.9,67.3,30.03,SE,127,0.0,0.0,98,0.00,,SKC,0.00,VWS V13.00,2013-08-24 10:00:00,
2013-08-24 05:05:00,67.6,67.0,30.03,SE,127,0.0,0.0,98,0.00,,SKC,0.00,VWS V13.00,2013-08-24 10:05:00,
2013-08-24 05:10:00,67.6,67.0,30.03,SE,127,0.0,0.0,98,0.00,,SKC,0.00,VWS V13.00,2013-08-24 10:10:00,
2013-08-24 05:15:00,67.6,67.0,30.04,SE,127,0.0,0.0,98,0.00,,SKC,0.00,VWS V13.00,2013-08-24 10:15:00,
2013-08-24 05:20:00,67.5,67.2,30.03,SE,127,0.0,0.0,99,0.00,,SKC,0.00,VWS V13.00,2013-08-24 10:20:00,
2013-08-24 05:25:00,67.5,67.2,30.04,East,89,0.0,0.0,99,0.00,,SKC,0.00,VWS V13.00,2013-08-24 10:25:00,
2013-08-24 05:30:00,67.5,67.2,30.04,East,89,0.0,0.0,99,0.00,,SKC,0.00,VWS V13.00,2013-08-24 10:30:00,
2013-08-24 05:35:00,67.5,67.2,30.04,East,89,0.0,0.0,99,0.00,,SKC,0.00,VWS V13.00,2013-08-24 10:35:00,
2013-08-24 05:40:00,67.6,67.3,30.05,East,89,0.0,0.0,99,0.00,,SKC,0.00,VWS V13.00,2013-08-24 10:40:00,
2013-08-24 05:45:00,67.5,67.2,30.05,East,89,0.0,0.0,99,0.00,,SKC,0.00,VWS V13.00,2013-08-24 10:45:00,
2013-08-24 05:50:00,67.5,67.2,30.05,East,89,0.0,0.0,99,0.00,,SKC,0.00,VWS V13.00,2013-08-24 10:50:00,
2013-08-24 05:55:00,67.7,67.4,30.05,East,89,0.0,0.0,99,0.00,,SKC,0.00,VWS V13.00,2013-08-24 10:55:00,
2013-08-24 06:00:00,67.7,67.4,30.05,East,89,0.0,0.0,99,0.00,,SKC,0.00,VWS V13.00,2013-08-24 11:00:00,
2013-08-24 06:05:00,67.6,67.3,30.06,East,89,0.0,0.0,99,0.00,,SKC,0.00,VWS V13.00,2013-08-24 11:05:00,
2013-08-24 06:10:00,67.6,67.3,30.06,East,89,0.0,0.0,99,0.00,,SKC,0.00,VWS V13.00,2013-08-24 11:10:00,
2013-08-24 06:15:00,67.6,67.3,30.06,East,89,0.0,0.0,99,0.00,,SKC,0.00,VWS V13.00,2013-08-24 11:15:00,
2013-08-24 06:20:00,67.7,67.4,30.06,East,89,0.0,0.0,99,0.01,,SKC,0.01,VWS V13.00,2013-08-24 11:20:00,
2013-08-24 06:25:00,67.5,67.2,30.06,East,89,0.0,0.0,99,0.01,,SKC,0.01,VWS V13.00,2013-08-24 11:25:00,
2013-08-24 06:30:00,67.6,67.3,30.07,East,89,0.0,0.0,99,0.01,,SKC,0.01,VWS V13.00,2013-08-24 11:30:00,
2013-08-24 06:35:00,67.8,67.5,30.07,East,89,0.0,0.0,99,0.01,,SKC,0.01,VWS V13.00,2013-08-24 11:35:00,
2013-08-24 06:40:00,67.9,67.6,30.07,East,89,0.0,0.0,99,0.01,,SKC,0.01,VWS V13.00,2013-08-24 11:40:00,
2013-08-24 06:45:00,68.0,67.7,30.07,East,89,0.0,0.0,99,0.01,,SKC,0.01,VWS V13.00,2013-08-24 11:45:00,
2013-08-24 06:50:00,68.1,67.8,30.07,East,89,0.0,0.0,99,0.01,,SKC,0.01,VWS V13.00,2013-08-24 11:50:00,
2013-08-24 06:55:00,68.3,68.0,30.07,East,89,0.0,0.0,99,0.01,,SKC,0.01,VWS V13.00,2013-08-24 11:55:00,
2013-08-24 07:00:00,68.4,68.1,30.08,East,89,0.0,0.0,99,0.01,,SKC,0.01,VWS V13.00,2013-08-24 12:00:00,
2013-08-24 07:05:00,68.6,68.3,30.08,East,89,0.0,0.0,99,0.01,,SKC,0.01,VWS V13.00,2013-08-24 12:05:00,
2013-08-24 07:10:00,68.9,68.6,30.08,East,90,0.0,0.0,99,0.01,,SKC,0.01,VWS V13.00,2013-08-24 12:10:00,
2013-08-24 07:15:00,69.2,68.9,30.08,ENE,78,0.0,0.0,99,0.01,,SKC,0.01,VWS V13.00,2013-08-24 12:15:00,
2013-08-24 07:20:00,69.4,69.1,30.08,ENE,72,0.0,0.0,99,0.01,,SKC,0.01,VWS V13.00,2013-08-24 12:20:00,
2013-08-24 07:25:00,69.5,68.9,30.08,ENE,71,0.0,0.0,98,0.01,,SKC,0.01,VWS V13.00,2013-08-24 12:25:00,
2013-08-24 07:30:00,69.7,69.1,30.09,ENE,71,0.0,0.0,98,0.01,,SKC,0.01,VWS V13.00,2013-08-24 12:30:00,
2013-08-24 07:35:00,69.9,69.3,30.08,ENE,71,0.0,0.0,98,0.00,,SKC,0.01,VWS V13.00,2013-08-24 12:35:00,
2013-08-24 07:40:00,70.1,69.2,30.09,ENE,70,0.0,0.0,97,0.00,,SKC,0.01,VWS V13.00,2013-08-24 12:40:00,
2013-08-24 07:45:00,70.5,69.9,30.09,ENE,70,0.0,0.0,98,0.00,,SKC,0.01,VWS V13.00,2013-08-24 12:45:00,
2013-08-24 07:50:00,70.9,70.0,30.09,ENE,70,0.0,0.0,97,0.00,,SKC,0.01,VWS V13.00,2013-08-24 12:50:00,
2013-08-24 07:55:00,71.3,70.1,30.09,East,83,0.0,0.0,96,0.00,,SKC,0.01,VWS V13.00,2013-08-24 12:55:00,
2013-08-24 08:00:00,71.7,70.5,30.09,ENE,77,0.0,0.0,96,0.00,,SKC,0.01,VWS V13.00,2013-08-24 13:00:00,
2013-08-24 08:05:00,72.1,70.6,30.10,East,84,0.0,0.0,95,0.00,,SKC,0.01,VWS V13.00,2013-08-24 13:05:00,
2013-08-24 08:10:00,72.5,70.7,30.10,ENE,71,0.0,0.0,94,0.00,,SKC,0.01,VWS V13.00,2013-08-24 13:10:00,
2013-08-24 08:15:00,72.8,70.7,30.10,ESE,113,0.0,0.0,93,0.00,,SKC,0.01,VWS V13.00,2013-08-24 13:15:00,
2013-08-24 08:20:00,73.1,70.6,30.10,East,80,0.0,0.0,92,0.00,,SKC,0.01,VWS V13.00,2013-08-24 13:20:00,
2013-08-24 08:25:00,73.5,70.7,30.10,ENE,75,0.0,0.0,91,0.00,,SKC,0.01,VWS V13.00,2013-08-24 13:25:00,
2013-08-24 08:30:00,73.7,70.6,30.10,East,98,0.0,0.0,90,0.00,,SKC,0.01,VWS V13.00,2013-08-24 13:30:00,
2013-08-24 08:35:00,74.0,70.6,30.10,East,83,0.0,0.0,89,0.00,,SKC,0.01,VWS V13.00,2013-08-24 13:35:00,
2013-08-24 08:40:00,74.3,71.2,30.10,East,86,0.0,0.0,90,0.00,,SKC,0.01,VWS V13.00,2013-08-24 13:40:00,
2013-08-24 08:45:00,74.7,71.2,30.10,ESE,107,0.0,0.0,89,0.00,,SKC,0.01,VWS V13.00,2013-08-24 13:45:00,
2013-08-24 08:50:00,75.1,71.6,30.10,East,94,0.0,0.0,89,0.00,,SKC,0.01,VWS V13.00,2013-08-24 13:50:00,
2013-08-24 08:55:00,75.4,71.6,30.10,ESE,121,0.0,0.0,88,0.00,,SKC,0.01,VWS V13.00,2013-08-24 13:55:00,
2013-08-24 09:00:00,75.6,71.5,30.10,ESE,109,0.0,0.0,87,0.00,,SKC,0.01,VWS V13.00,2013-08-24 14:00:00,
2013-08-24 09:05:00,75.8,71.7,30.10,East,92,0.0,0.0,87,0.00,,SKC,0.01,VWS V13.00,2013-08-24 14:05:00,
2013-08-24 09:10:00,76.0,71.9,30.10,East,100,0.0,0.0,87,0.00,,SKC,0.01,VWS V13.00,2013-08-24 14:10:00,
2013-08-24 09:15:00,76.4,71.9,30.11,ESE,117,0.0,0.0,86,0.00,,SKC,0.01,VWS V13.00,2013-08-24 14:15:00,
2013-08-24 09:20:00,76.6,72.1,30.11,East,86,0.0,0.0,86,0.00,,SKC,0.01,VWS V13.00,2013-08-24 14:20:00,
2013-08-24 09:25:00,76.9,72.1,30.10,ESE,113,0.0,0.0,85,0.00,,SKC,0.01,VWS V13.00,2013-08-24 14:25:00,
2013-08-24 09:30:00,77.1,71.9,30.10,ESE,111,0.0,0.0,84,0.00,,SKC,0.01,VWS V13.00,2013-08-24 14:30:00,
2013-08-24 09:35:00,77.4,72.2,30.11,East,96,0.0,0.0,84,0.00,,SKC,0.01,VWS V13.00,2013-08-24 14:35:00,
2013-08-24 09:40:00,77.7,71.8,30.10,East,88,0.0,0.0,82,0.00,,SKC,0.01,VWS V13.00,2013-08-24 14:40:00,
2013-08-24 09:45:00,78.1,72.5,30.10,ESE,103,0.0,0.0,83,0.00,,SKC,0.01,VWS V13.00,2013-08-24 14:45:00,
2013-08-24 09:50:00,78.4,72.4,30.11,South,175,0.0,0.0,82,0.00,,SKC,0.01,VWS V13.00,2013-08-24 14:50:00,
2013-08-24 09:55:00,78.5,72.9,30.10,SE,138,0.0,0.0,83,0.00,,SKC,0.01,VWS V13.00,2013-08-24 14:55:00,
2013-08-24 10:00:00,78.6,72.7,30.11,East,96,0.0,0.0,82,0.00,,SKC,0.01,VWS V13.00,2013-08-24 15:00:00,
2013-08-24 10:05:00,78.7,73.1,30.10,ENE,73,0.0,0.0,83,0.00,,SKC,0.01,VWS V13.00,2013-08-24 15:05:00,
2013-08-24 10:10:00,78.7,73.1,30.10,ENE,73,0.0,0.0,83,0.00,,SKC,0.01,VWS V13.00,2013-08-24 15:10:00,
2013-08-24 10:15:00,78.7,73.1,30.10,ENE,73,0.0,0.0,83,0.00,,SKC,0.01,VWS V13.00,2013-08-24 15:15:00,
2013-08-24 10:20:00,78.7,73.1,30.10,ENE,73,0.0,0.0,83,0.00,,SKC,0.01,VWS V13.00,2013-08-24 15:20:00,
2013-08-24 10:24:00,78.7,73.1,30.10,ENE,73,0.0,0.0,83,0.00,,SKC,0.01,VWS V13.00,2013-08-24 15:24:00,
2013-08-24 10:29:00,78.7,73.1,30.10,ENE,73,0.0,0.0,83,0.00,,SKC,0.01,VWS V13.00,2013-08-24 15:29:00,
2013-08-24 10:30:00,79.7,73.4,30.10,North,0,0.0,0.0,81,0.00,,SKC,0.01,VWS V13.00,2013-08-24 15:30:00,
2013-08-24 10:34:00,78.7,73.1,30.10,ENE,73,0.0,0.0,83,0.00,,SKC,0.01,VWS V13.00,2013-08-24 15:34:00,
2013-08-24 10:39:00,78.7,73.1,30.10,ENE,73,0.0,0.0,83,0.00,,SKC,0.01,VWS V13.00,2013-08-24 15:39:00,
2013-08-24 10:44:00,78.7,73.1,30.10,ENE,73,0.0,0.0,83,0.00,,SKC,0.01,VWS V13.00,2013-08-24 15:44:00,
2013-08-24 10:49:00,78.7,73.1,30.10,ENE,73,0.0,0.0,83,0.00,,SKC,0.01,VWS V13.00,2013-08-24 15:49:00,
2013-08-24 10:54:00,78.7,73.1,30.10,ENE,73,0.0,0.0,83,0.00,,SKC,0.01,VWS V13.00,2013-08-24 15:54:00,
2013-08-24 10:59:00,78.7,73.1,30.10,ENE,73,0.0,0.0,83,0.00,,SKC,0.01,VWS V13.00,2013-08-24 15:59:00,
2013-08-24 11:00:00,80.8,73.3,30.11,North,0,0.0,0.0,78,0.00,,SKC,0.01,VWS V13.00,2013-08-24 16:00:00,
2013-08-24 11:04:00,78.7,73.1,30.10,ENE,73,0.0,0.0,83,0.00,,SKC,0.01,VWS V13.00,2013-08-24 16:04:00,
2013-08-24 11:09:00,78.7,73.1,30.10,ENE,73,0.0,0.0,83,0.00,,SKC,0.01,VWS V13.00,2013-08-24 16:09:00,
2013-08-24 11:14:00,78.7,73.1,30.10,ENE,73,0.0,0.0,83,0.00,,SKC,0.01,VWS V13.00,2013-08-24 16:14:00,
2013-08-24 11:19:00,78.7,73.1,30.10,ENE,73,0.0,0.0,83,0.00,,SKC,0.01,VWS V13.00,2013-08-24 16:19:00,
2013-08-24 11:24:00,78.7,73.1,30.10,ENE,73,0.0,0.0,83,0.00,,SKC,0.01,VWS V13.00,2013-08-24 16:24:00,
2013-08-24 11:29:00,78.7,73.1,30.10,ENE,73,0.0,0.0,83,0.00,,SKC,0.01,VWS V13.00,2013-08-24 16:29:00,
2013-08-24 11:30:00,80.9,74.5,30.11,North,0,0.0,0.0,81,0.00,,SKC,0.01,VWS V13.00,2013-08-24 16:30:00,
2013-08-24 11:34:00,78.7,73.1,30.10,ENE,73,0.0,0.0,83,0.00,,SKC,0.01,VWS V13.00,2013-08-24 16:34:00,
2013-08-24 11:39:00,78.7,73.1,30.10,ENE,73,0.0,0.0,83,0.00,,SKC,0.01,VWS V13.00,2013-08-24 16:39:00,
2013-08-24 11:44:00,78.7,73.1,30.10,ENE,73,0.0,0.0,83,0.00,,SKC,0.01,VWS V13.00,2013-08-24 16:44:00,
2013-08-24 11:49:00,78.7,73.1,30.10,ENE,73,0.0,0.0,83,0.00,,SKC,0.01,VWS V13.00,2013-08-24 16:49:00,
2013-08-24 11:54:00,78.7,73.1,30.10,ENE,73,0.0,0.0,83,0.00,,SKC,0.01,VWS V13.00,2013-08-24 16:54:00,
2013-08-24 11:59:00,78.7,73.1,30.10,ENE,73,0.0,0.0,83,0.00,,SKC,0.01,VWS V13.00,2013-08-24 16:59:00,
2013-08-24 12:00:00,81.4,73.5,30.11,North,0,0.0,0.0,77,0.00,,SKC,0.01,VWS V13.00,2013-08-24 17:00:00,
2013-08-24 12:04:00,78.7,73.1,30.10,ENE,73,0.0,0.0,83,0.00,,SKC,0.01,VWS V13.00,2013-08-24 17:04:00,
2013-08-24 12:09:00,78.7,73.1,30.10,ENE,73,0.0,0.0,83,0.00,,SKC,0.01,VWS V13.00,2013-08-24 17:09:00,
2013-08-24 12:14:00,78.7,73.1,30.10,ENE,73,0.0,0.0,83,0.00,,SKC,0.01,VWS V13.00,2013-08-24 17:14:00,
2013-08-24 12:19:00,78.7,73.1,30.10,ENE,73,0.0,0.0,83,0.00,,SKC,0.01,VWS V13.00,2013-08-24 17:19:00,
2013-08-24 12:24:00,78.7,73.1,30.10,ENE,73,0.0,0.0,83,0.00,,SKC,0.01,VWS V13.00,2013-08-24 17:24:00,
2013-08-24 12:29:00,78.7,73.1,30.10,ENE,73,0.0,0.0,83,0.00,,SKC,0.01,VWS V13.00,2013-08-24 17:29:00,
2013-08-24 12:30:00,81.9,74.4,30.11,North,0,0.0,0.0,78,0.00,,SKC,0.01,VWS V13.00,2013-08-24 17:30:00,
2013-08-24 12:34:00,78.7,73.1,30.10,ENE,73,0.0,0.0,83,0.00,,SKC,0.01,VWS V13.00,2013-08-24 17:34:00,
2013-08-24 12:39:00,78.7,73.1,30.10,ENE,73,0.0,0.0,83,0.00,,SKC,0.01,VWS V13.00,2013-08-24 17:39:00,
2013-08-24 12:44:00,78.7,73.1,30.10,ENE,73,0.0,0.0,83,0.00,,SKC,0.01,VWS V13.00,2013-08-24 17:44:00,
2013-08-24 12:49:00,78.7,73.1,30.10,ENE,73,0.0,0.0,83,0.00,,SKC,0.01,VWS V13.00,2013-08-24 17:49:00,
2013-08-24 12:54:00,78.7,73.1,30.10,ENE,73,0.0,0.0,83,0.00,,SKC,0.01,VWS V13.00,2013-08-24 17:54:00,
2013-08-24 12:59:00,78.7,73.1,30.10,ENE,73,0.0,0.0,83,0.00,,SKC,0.01,VWS V13.00,2013-08-24 17:59:00,
2013-08-24 13:00:00,82.0,74.1,30.10,North,0,0.0,0.0,77,0.00,,SKC,0.01,VWS V13.00,2013-08-24 18:00:00,
2013-08-24 13:04:00,78.7,73.1,30.10,ENE,73,0.0,0.0,83,0.00,,SKC,0.01,VWS V13.00,2013-08-24 18:04:00,
2013-08-24 13:09:00,78.7,73.1,30.10,ENE,73,0.0,0.0,83,0.00,,SKC,0.01,VWS V13.00,2013-08-24 18:09:00,
2013-08-24 13:14:00,78.7,73.1,30.10,ENE,73,0.0,0.0,83,0.00,,SKC,0.01,VWS V13.00,2013-08-24 18:14:00,
2013-08-24 13:19:00,78.7,73.1,30.10,ENE,73,0.0,0.0,83,0.00,,SKC,0.01,VWS V13.00,2013-08-24 18:19:00,
2013-08-24 13:24:00,78.7,73.1,30.10,ENE,73,0.0,0.0,83,0.00,,SKC,0.01,VWS V13.00,2013-08-24 18:24:00,
2013-08-24 13:29:00,78.7,73.1,30.10,ENE,73,0.0,0.0,83,0.00,,SKC,0.01,VWS V13.00,2013-08-24 18:29:00,
2013-08-24 13:30:00,83.1,74.0,30.10,North,0,0.0,0.0,74,0.00,,SKC,0.01,VWS V13.00,2013-08-24 18:30:00,
2013-08-24 13:34:00,78.7,73.1,30.10,ENE,73,0.0,0.0,83,0.00,,SKC,0.01,VWS V13.00,2013-08-24 18:34:00,
2013-08-24 13:39:00,78.7,73.1,30.10,ENE,73,0.0,0.0,83,0.00,,SKC,0.01,VWS V13.00,2013-08-24 18:39:00,
2013-08-24 13:44:00,78.7,73.1,30.10,ENE,73,0.0,0.0,83,0.00,,SKC,0.01,VWS V13.00,2013-08-24 18:44:00,
2013-08-24 13:49:00,78.7,73.1,30.10,ENE,73,0.0,0.0,83,0.00,,SKC,0.01,VWS V13.00,2013-08-24 18:49:00,
2013-08-24 13:54:00,78.7,73.1,30.10,ENE,73,0.0,0.0,83,0.00,,SKC,0.01,VWS V13.00,2013-08-24 18:54:00,
2013-08-24 13:59:00,78.7,73.1,30.10,ENE,73,0.0,0.0,83,0.00,,SKC,0.01,VWS V13.00,2013-08-24 18:59:00,
2013-08-24 14:00:00,84.3,76.3,30.10,North,0,0.0,0.0,77,0.00,,SKC,0.01,VWS V13.00,2013-08-24 19:00:00,
2013-08-24 14:04:00,78.7,73.1,30.10,ENE,73,0.0,0.0,83,0.00,,SKC,0.01,VWS V13.00,2013-08-24 19:04:00,
2013-08-24 14:09:00,78.7,73.1,30.10,ENE,73,0.0,0.0,83,0.00,,SKC,0.01,VWS V13.00,2013-08-24 19:09:00,
2013-08-24 14:14:00,78.7,73.1,30.10,ENE,73,0.0,0.0,83,0.00,,SKC,0.01,VWS V13.00,2013-08-24 19:14:00,
2013-08-24 14:19:00,78.7,73.1,30.10,ENE,73,0.0,0.0,83,0.00,,SKC,0.01,VWS V13.00,2013-08-24 19:19:00,
2013-08-24 14:24:00,78.7,73.1,30.10,ENE,73,0.0,0.0,83,0.00,,SKC,0.01,VWS V13.00,2013-08-24 19:24:00,
2013-08-24 14:29:00,78.7,73.1,30.10,ENE,73,0.0,0.0,83,0.00,,SKC,0.01,VWS V13.00,2013-08-24 19:29:00,
2013-08-24 14:30:00,84.1,75.7,30.09,North,0,0.0,0.0,76,0.00,,SKC,0.01,VWS V13.00,2013-08-24 19:30:00,
2013-08-24 14:34:00,78.7,73.1,30.10,ENE,73,0.0,0.0,83,0.00,,SKC,0.01,VWS V13.00,2013-08-24 19:34:00,
2013-08-24 14:39:00,78.7,73.1,30.10,ENE,73,0.0,0.0,83,0.00,,SKC,0.01,VWS V13.00,2013-08-24 19:39:00,
2013-08-24 14:44:00,78.7,73.1,30.10,ENE,73,0.0,0.0,83,0.00,,SKC,0.01,VWS V13.00,2013-08-24 19:44:00,
2013-08-24 14:49:00,78.7,73.1,30.10,ENE,73,0.0,0.0,83,0.00,,SKC,0.01,VWS V13.00,2013-08-24 19:49:00,
2013-08-24 14:54:00,78.7,73.1,30.10,ENE,73,0.0,0.0,83,0.00,,SKC,0.01,VWS V13.00,2013-08-24 19:54:00,
2013-08-24 14:59:00,78.7,73.1,30.10,ENE,73,0.0,0.0,83,0.00,,SKC,0.01,VWS V13.00,2013-08-24 19:59:00,
2013-08-24 15:00:00,83.4,74.7,30.09,North,0,0.0,0.0,75,0.00,,SKC,0.01,VWS V13.00,2013-08-24 20:00:00,
2013-08-24 15:04:00,78.7,73.1,30.10,ENE,73,0.0,0.0,83,0.00,,SKC,0.01,VWS V13.00,2013-08-24 20:04:00,
2013-08-24 15:09:00,78.7,73.1,30.10,ENE,73,0.0,0.0,83,0.00,,SKC,0.01,VWS V13.00,2013-08-24 20:09:00,
2013-08-24 15:14:00,78.7,73.1,30.10,ENE,73,0.0,0.0,83,0.00,,SKC,0.01,VWS V13.00,2013-08-24 20:14:00,
2013-08-24 15:19:00,78.7,73.1,30.10,ENE,73,0.0,0.0,83,0.00,,SKC,0.01,VWS V13.00,2013-08-24 20:19:00,
2013-08-24 15:24:00,78.7,73.1,30.10,ENE,73,0.0,0.0,83,0.00,,SKC,0.01,VWS V13.00,2013-08-24 20:24:00,
2013-08-24 15:29:00,78.7,73.1,30.10,ENE,73,0.0,0.0,83,0.00,,SKC,0.01,VWS V13.00,2013-08-24 20:29:00,
2013-08-24 15:30:00,83.3,74.6,30.08,North,0,0.0,0.0,75,0.00,,SKC,0.01,VWS V13.00,2013-08-24 20:30:00,
2013-08-24 15:34:00,78.7,73.1,30.10,ENE,73,0.0,0.0,83,0.00,,SKC,0.01,VWS V13.00,2013-08-24 20:34:00,
2013-08-24 15:39:00,78.7,73.1,30.10,ENE,73,0.0,0.0,83,0.00,,SKC,0.01,VWS V13.00,2013-08-24 20:39:00,
2013-08-24 15:44:00,78.7,73.1,30.10,ENE,73,0.0,0.0,83,0.00,,SKC,0.01,VWS V13.00,2013-08-24 20:44:00,
2013-08-24 15:49:00,78.7,73.1,30.10,ENE,73,0.0,0.0,83,0.00,,SKC,0.01,VWS V13.00,2013-08-24 20:49:00,
2013-08-24 15:54:00,78.7,73.1,30.10,ENE,73,0.0,0.0,83,0.00,,SKC,0.01,VWS V13.00,2013-08-24 20:54:00,
2013-08-24 15:59:00,78.7,73.1,30.10,ENE,73,0.0,0.0,83,0.00,,SKC,0.01,VWS V13.00,2013-08-24 20:59:00,
2013-08-24 16:00:00,83.9,74.7,30.08,North,0,0.0,0.0,74,0.00,,SKC,0.01,VWS V13.00,2013-08-24 21:00:00,
2013-08-24 16:04:00,78.7,73.1,30.10,ENE,73,0.0,0.0,83,0.00,,SKC,0.01,VWS V13.00,2013-08-24 21:04:00,
2013-08-24 16:09:00,78.7,73.1,30.10,ENE,73,0.0,0.0,83,0.00,,SKC,0.01,VWS V13.00,2013-08-24 21:09:00,
2013-08-24 16:14:00,78.7,73.1,30.10,ENE,73,0.0,0.0,83,0.00,,SKC,0.01,VWS V13.00,2013-08-24 21:14:00,
2013-08-24 16:19:00,78.7,73.1,30.10,ENE,73,0.0,0.0,83,0.00,,SKC,0.01,VWS V13.00,2013-08-24 21:19:00,
2013-08-24 16:24:00,78.7,73.1,30.10,ENE,73,0.0,0.0,83,0.00,,SKC,0.01,VWS V13.00,2013-08-24 21:24:00,
2013-08-24 16:29:00,78.7,73.1,30.10,ENE,73,0.0,0.0,83,0.00,,SKC,0.01,VWS V13.00,2013-08-24 21:29:00,
2013-08-24 16:30:00,84.1,73.7,30.07,North,0,0.0,0.0,71,0.00,,SKC,0.01,VWS V13.00,2013-08-24 21:30:00,
2013-08-24 16:34:00,78.7,73.1,30.10,ENE,73,0.0,0.0,83,0.00,,SKC,0.01,VWS V13.00,2013-08-24 21:34:00,
2013-08-24 16:39:00,78.7,73.1,30.10,ENE,73,0.0,0.0,83,0.00,,SKC,0.01,VWS V13.00,2013-08-24 21:39:00,
2013-08-24 16:44:00,78.7,73.1,30.10,ENE,73,0.0,0.0,83,0.00,,SKC,0.01,VWS V13.00,2013-08-24 21:44:00,
2013-08-24 16:49:00,78.7,73.1,30.10,ENE,73,0.0,0.0,83,0.00,,SKC,0.01,VWS V13.00,2013-08-24 21:49:00,
2013-08-24 16:54:00,78.7,73.1,30.10,ENE,73,0.0,0.0,83,0.00,,SKC,0.01,VWS V13.00,2013-08-24 21:54:00,
2013-08-24 16:59:00,78.7,73.1,30.10,ENE,73,0.0,0.0,83,0.00,,SKC,0.01,VWS V13.00,2013-08-24 21:59:00,
2013-08-24 17:00:00,84.2,73.4,30.07,North,0,0.0,0.0,70,0.00,,SKC,0.01,VWS V13.00,2013-08-24 22:00:00,
2013-08-24 17:04:00,78.7,73.1,30.10,ENE,73,0.0,0.0,83,0.00,,SKC,0.01,VWS V13.00,2013-08-24 22:04:00,
2013-08-24 17:09:00,78.7,73.1,30.10,ENE,73,0.0,0.0,83,0.00,,SKC,0.01,VWS V13.00,2013-08-24 22:09:00,
2013-08-24 17:14:00,78.7,73.1,30.10,ENE,73,0.0,0.0,83,0.00,,SKC,0.01,VWS V13.00,2013-08-24 22:14:00,
2013-08-24 17:19:00,78.7,73.1,30.10,ENE,73,0.0,0.0,83,0.00,,SKC,0.01,VWS V13.00,2013-08-24 22:19:00,
2013-08-24 17:24:00,78.7,73.1,30.10,ENE,73,0.0,0.0,83,0.00,,SKC,0.01,VWS V13.00,2013-08-24 22:24:00,
2013-08-24 17:29:00,78.7,73.1,30.10,ENE,73,0.0,0.0,83,0.00,,SKC,0.01,VWS V13.00,2013-08-24 22:29:00,
2013-08-24 17:30:00,83.2,73.2,30.07,North,0,0.0,0.0,72,0.00,,SKC,0.01,VWS V13.00,2013-08-24 22:30:00,
2013-08-24 17:34:00,78.7,73.1,30.10,ENE,73,0.0,0.0,83,0.00,,SKC,0.01,VWS V13.00,2013-08-24 22:34:00,
2013-08-24 17:39:00,78.7,73.1,30.10,ENE,73,0.0,0.0,83,0.00,,SKC,0.01,VWS V13.00,2013-08-24 22:39:00,
2013-08-24 17:44:00,78.7,73.1,30.10,ENE,73,0.0,0.0,83,0.00,,SKC,0.01,VWS V13.00,2013-08-24 22:44:00,
2013-08-24 17:49:00,78.7,73.1,30.10,ENE,73,0.0,0.0,83,0.00,,SKC,0.01,VWS V13.00,2013-08-24 22:49:00,
2013-08-24 17:54:00,78.7,73.1,30.10,ENE,73,0.0,0.0,83,0.00,,SKC,0.01,VWS V13.00,2013-08-24 22:54:00,
2013-08-24 17:59:00,78.7,73.1,30.10,ENE,73,0.0,0.0,83,0.00,,SKC,0.01,VWS V13.00,2013-08-24 22:59:00,
2013-08-24 18:00:00,82.3,72.8,30.07,North,0,0.0,0.0,73,0.00,,SKC,0.01,VWS V13.00,2013-08-24 23:00:00,
2013-08-24 18:04:00,78.7,73.1,30.10,ENE,73,0.0,0.0,83,0.00,,SKC,0.01,VWS V13.00,2013-08-24 23:04:00,
2013-08-24 18:09:00,78.7,73.1,30.10,ENE,73,0.0,0.0,83,0.00,,SKC,0.01,VWS V13.00,2013-08-24 23:09:00,
2013-08-24 18:14:00,78.7,73.1,30.10,ENE,73,0.0,0.0,83,0.00,,SKC,0.01,VWS V13.00,2013-08-24 23:14:00,
2013-08-24 18:19:00,78.7,73.1,30.10,ENE,73,0.0,0.0,83,0.00,,SKC,0.01,VWS V13.00,2013-08-24 23:19:00,
2013-08-24 18:24:00,78.7,73.1,30.10,ENE,73,0.0,0.0,83,0.00,,SKC,0.01,VWS V13.00,2013-08-24 23:24:00,
2013-08-24 18:29:00,78.7,73.1,30.10,ENE,73,0.0,0.0,83,0.00,,SKC,0.01,VWS V13.00,2013-08-24 23:29:00,
2013-08-24 18:30:00,81.4,73.1,30.08,North,0,0.0,0.0,76,0.00,,SKC,0.01,VWS V13.00,2013-08-24 23:30:00,
2013-08-24 18:34:00,78.7,73.1,30.10,ENE,73,0.0,0.0,83,0.00,,SKC,0.01,VWS V13.00,2013-08-24 23:34:00,
2013-08-24 18:39:00,78.7,73.1,30.10,ENE,73,0.0,0.0,83,0.00,,SKC,0.01,VWS V13.00,2013-08-24 23:39:00,
2013-08-24 18:44:00,78.7,73.1,30.10,ENE,73,0.0,0.0,83,0.00,,SKC,0.01,VWS V13.00,2013-08-24 23:44:00,
2013-08-24 18:49:00,78.7,73.1,30.10,ENE,73,0.0,0.0,83,0.00,,SKC,0.01,VWS V13.00,2013-08-24 23:49:00,
2013-08-24 18:54:00,78.7,73.1,30.10,ENE,73,0.0,0.0,83,0.00,,SKC,0.01,VWS V13.00,2013-08-24 23:54:00,
2013-08-24 18:59:00,78.7,73.1,30.10,ENE,73,0.0,0.0,83,0.00,,SKC,0.01,VWS V13.00,2013-08-24 23:59:00,
2013-08-24 19:00:00,79.8,72.7,30.09,North,0,0.0,0.0,79,0.00,,SKC,0.01,VWS V13.00,2013-08-25 00:00:00,
2013-08-24 19:04:00,78.7,73.1,30.10,ENE,73,0.0,0.0,83,0.00,,SKC,0.01,VWS V13.00,2013-08-25 00:04:00,
2013-08-24 19:09:00,78.7,73.1,30.10,ENE,73,0.0,0.0,83,0.00,,SKC,0.01,VWS V13.00,2013-08-25 00:09:00,
2013-08-24 19:14:00,78.7,73.1,30.10,ENE,73,0.0,0.0,83,0.00,,SKC,0.01,VWS V13.00,2013-08-25 00:14:00,
2013-08-24 19:19:00,78.7,73.1,30.10,ENE,73,0.0,0.0,83,0.00,,SKC,0.01,VWS V13.00,2013-08-25 00:19:00,
2013-08-24 19:24:00,78.7,73.1,30.10,ENE,73,0.0,0.0,83,0.00,,SKC,0.01,VWS V13.00,2013-08-25 00:24:00,
2013-08-24 19:29:00,78.7,73.1,30.10,ENE,73,0.0,0.0,83,0.00,,SKC,0.01,VWS V13.00,2013-08-25 00:29:00,
2013-08-24 19:30:00,78.1,72.2,30.09,North,0,0.0,0.0,82,0.00,,SKC,0.01,VWS V13.00,2013-08-25 00:30:00,
2013-08-24 19:34:00,78.7,73.1,30.10,ENE,73,0.0,0.0,83,0.00,,SKC,0.01,VWS V13.00,2013-08-25 00:34:00,
2013-08-24 19:39:00,78.7,73.1,30.10,ENE,73,0.0,0.0,83,0.00,,SKC,0.01,VWS V13.00,2013-08-25 00:39:00,
2013-08-24 19:44:00,78.7,73.1,30.10,ENE,73,0.0,0.0,83,0.00,,SKC,0.01,VWS V13.00,2013-08-25 00:44:00,
2013-08-24 19:49:00,78.7,73.1,30.10,ENE,73,0.0,0.0,83,0.00,,SKC,0.01,VWS V13.00,2013-08-25 00:49:00,
2013-08-24 19:54:00,78.7,73.1,30.10,ENE,73,0.0,0.0,83,0.00,,SKC,0.01,VWS V13.00,2013-08-25 00:54:00,
2013-08-24 19:59:00,78.7,73.1,30.10,ENE,73,0.0,0.0,83,0.00,,SKC,0.01,VWS V13.00,2013-08-25 00:59:00,
2013-08-24 20:00:00,76.7,71.9,30.10,North,0,0.0,0.0,85,0.00,,SKC,0.01,VWS V13.00,2013-08-25 01:00:00,
2013-08-24 20:04:00,78.7,73.1,30.10,ENE,73,0.0,0.0,83,0.00,,SKC,0.01,VWS V13.00,2013-08-25 01:04:00,
2013-08-24 20:09:00,78.7,73.1,30.10,ENE,73,0.0,0.0,83,0.00,,SKC,0.01,VWS V13.00,2013-08-25 01:09:00,
2013-08-24 20:14:00,78.7,73.1,30.10,ENE,73,0.0,0.0,83,0.00,,SKC,0.01,VWS V13.00,2013-08-25 01:14:00,
2013-08-24 20:19:00,78.7,73.1,30.10,ENE,73,0.0,0.0,83,0.00,,SKC,0.01,VWS V13.00,2013-08-25 01:19:00,
2013-08-24 20:24:00,78.7,73.1,30.10,ENE,73,0.0,0.0,83,0.00,,SKC,0.01,VWS V13.00,2013-08-25 01:24:00,
2013-08-24 20:29:00,78.7,73.1,30.10,ENE,73,0.0,0.0,83,0.00,,SKC,0.01,VWS V13.00,2013-08-25 01:29:00,
2013-08-24 20:30:00,74.8,71.7,30.11,North,0,0.0,0.0,90,0.00,,SKC,0.01,VWS V13.00,2013-08-25 01:30:00,
2013-08-24 20:34:00,78.7,73.1,30.10,ENE,73,0.0,0.0,83,0.00,,SKC,0.01,VWS V13.00,2013-08-25 01:34:00,
2013-08-24 20:39:00,78.7,73.1,30.10,ENE,73,0.0,0.0,83,0.00,,SKC,0.01,VWS V13.00,2013-08-25 01:39:00,
2013-08-24 20:44:00,78.7,73.1,30.10,ENE,73,0.0,0.0,83,0.00,,SKC,0.01,VWS V13.00,2013-08-25 01:44:00,
2013-08-24 20:49:00,78.7,73.1,30.10,ENE,73,0.0,0.0,83,0.00,,SKC,0.01,VWS V13.00,2013-08-25 01:49:00,
2013-08-24 20:54:00,78.7,73.1,30.10,ENE,73,0.0,0.0,83,0.00,,SKC,0.01,VWS V13.00,2013-08-25 01:54:00,
2013-08-24 20:59:00,78.7,73.1,30.10,ENE,73,0.0,0.0,83,0.00,,SKC,0.01,VWS V13.00,2013-08-25 01:59:00,
2013-08-24 21:00:00,73.9,71.4,30.12,North,0,0.0,0.0,92,0.00,,SKC,0.01,VWS V13.00,2013-08-25 02:00:00,
2013-08-24 21:04:00,78.7,73.1,30.10,ENE,73,0.0,0.0,83,0.00,,SKC,0.01,VWS V13.00,2013-08-25 02:04:00,
2013-08-24 21:09:00,78.7,73.1,30.10,ENE,73,0.0,0.0,83,0.00,,SKC,0.01,VWS V13.00,2013-08-25 02:09:00,
2013-08-24 21:14:00,78.7,73.1,30.10,ENE,73,0.0,0.0,83,0.00,,SKC,0.01,VWS V13.00,2013-08-25 02:14:00,
2013-08-24 21:19:00,78.7,73.1,30.10,ENE,73,0.0,0.0,83,0.00,,SKC,0.01,VWS V13.00,2013-08-25 02:19:00,
2013-08-24 21:24:00,78.7,73.1,30.10,ENE,73,0.0,0.0,83,0.00,,SKC,0.01,VWS V13.00,2013-08-25 02:24:00,
2013-08-24 21:29:00,78.7,73.1,30.10,ENE,73,0.0,0.0,83,0.00,,SKC,0.01,VWS V13.00,2013-08-25 02:29:00,
2013-08-24 21:30:00,73.9,71.1,30.13,North,0,0.0,0.0,91,0.00,,SKC,0.01,VWS V13.00,2013-08-25 02:30:00,
2013-08-24 21:34:00,78.7,73.1,30.10,ENE,73,0.0,0.0,83,0.00,,SKC,0.01,VWS V13.00,2013-08-25 02:34:00,
2013-08-24 21:39:00,78.7,73.1,30.10,ENE,73,0.0,0.0,83,0.00,,SKC,0.01,VWS V13.00,2013-08-25 02:39:00,
2013-08-24 21:44:00,78.7,73.1,30.10,ENE,73,0.0,0.0,83,0.00,,SKC,0.01,VWS V13.00,2013-08-25 02:44:00,
2013-08-24 21:49:00,78.7,73.1,30.10,ENE,73,0.0,0.0,83,0.00,,SKC,0.01,VWS V13.00,2013-08-25 02:49:00,
2013-08-24 21:54:00,78.7,73.1,30.10,ENE,73,0.0,0.0,83,0.00,,SKC,0.01,VWS V13.00,2013-08-25 02:54:00,
2013-08-24 21:59:00,78.7,73.1,30.10,ENE,73,0.0,0.0,83,0.00,,SKC,0.01,VWS V13.00,2013-08-25 02:59:00,
2013-08-24 22:00:00,74.3,70.8,30.15,ESE,112,0.0,6.0,89,0.00,,SKC,0.01,VWS V13.00,2013-08-25 03:00:00,
2013-08-24 22:04:00,78.7,73.1,30.10,ENE,73,0.0,0.0,83,0.00,,SKC,0.01,VWS V13.00,2013-08-25 03:04:00,
2013-08-24 22:09:00,78.7,73.1,30.10,ENE,73,0.0,0.0,83,0.00,,SKC,0.01,VWS V13.00,2013-08-25 03:09:00,
2013-08-24 22:14:00,78.7,73.1,30.10,ENE,73,0.0,0.0,83,0.00,,SKC,0.01,VWS V13.00,2013-08-25 03:14:00,
2013-08-24 22:19:00,78.7,73.1,30.10,ENE,73,0.0,0.0,83,0.00,,SKC,0.01,VWS V13.00,2013-08-25 03:19:00,
2013-08-24 22:24:00,78.7,73.1,30.10,ENE,73,0.0,0.0,83,0.00,,SKC,0.01,VWS V13.00,2013-08-25 03:24:00,
2013-08-24 22:29:00,78.7,73.1,30.10,ENE,73,0.0,0.0,83,0.00,,SKC,0.01,VWS V13.00,2013-08-25 03:29:00,
2013-08-24 22:30:00,74.2,71.1,30.15,East,90,2.0,8.0,90,0.00,,SKC,0.01,VWS V13.00,2013-08-25 03:30:00,
2013-08-24 22:34:00,78.7,73.1,30.10,ENE,73,0.0,0.0,83,0.00,,SKC,0.01,VWS V13.00,2013-08-25 03:34:00,
2013-08-24 22:39:00,78.7,73.1,30.10,ENE,73,0.0,0.0,83,0.00,,SKC,0.01,VWS V13.00,2013-08-25 03:39:00,
2013-08-24 22:44:00,78.7,73.1,30.10,ENE,73,0.0,0.0,83,0.00,,SKC,0.01,VWS V13.00,2013-08-25 03:44:00,
2013-08-24 22:49:00,78.7,73.1,30.10,ENE,73,0.0,0.0,83,0.00,,SKC,0.01,VWS V13.00,2013-08-25 03:49:00,
2013-08-24 22:54:00,78.7,73.1,30.10,ENE,73,0.0,0.0,83,0.00,,SKC,0.01,VWS V13.00,2013-08-25 03:54:00,
2013-08-24 22:59:00,78.7,73.1,30.10,ENE,73,0.0,0.0,83,0.00,,SKC,0.01,VWS V13.00,2013-08-25 03:59:00,
2013-08-24 23:00:00,73.9,70.1,30.16,East,90,4.0,11.0,88,0.00,,SKC,0.01,VWS V13.00,2013-08-25 04:00:00,
2013-08-24 23:01:00,78.7,73.1,30.10,ENE,73,0.0,0.0,83,0.00,,SKC,0.01,VWS V13.00,2013-08-25 04:01:00,
2013-08-24 23:02:00,78.7,73.1,30.10,ENE,73,0.0,0.0,83,0.00,,SKC,0.01,VWS V13.00,2013-08-25 04:02:00,
2013-08-24 23:07:00,78.7,73.1,30.10,ENE,73,0.0,0.0,83,0.00,,SKC,0.01,VWS V13.00,2013-08-25 04:07:00,
2013-08-24 23:12:00,78.7,73.1,30.10,ENE,73,0.0,0.0,83,0.00,,SKC,0.01,VWS V13.00,2013-08-25 04:12:00,
2013-08-24 23:17:00,78.7,73.1,30.10,ENE,73,0.0,0.0,83,0.00,,SKC,0.01,VWS V13.00,2013-08-25 04:17:00,
2013-08-24 23:22:00,78.7,73.1,30.10,ENE,73,0.0,0.0,83,0.00,,SKC,0.01,VWS V13.00,2013-08-25 04:22:00,
2013-08-24 23:27:00,78.7,73.1,30.10,ENE,73,0.0,0.0,83,0.00,,SKC,0.01,VWS V13.00,2013-08-25 04:27:00,
2013-08-24 23:30:00,73.6,69.5,30.16,ESE,112,5.0,13.0,87,0.00,,SKC,0.01,VWS V13.00,2013-08-25 04:30:00,
2013-08-24 23:32:00,78.7,73.1,30.10,ENE,73,0.0,0.0,83,0.00,,SKC,0.01,VWS V13.00,2013-08-25 04:32:00,
2013-08-24 23:37:00,78.7,73.1,30.10,ENE,73,0.0,0.0,83,0.00,,SKC,0.01,VWS V13.00,2013-08-25 04:37:00,
2013-08-24 23:42:00,78.7,73.1,30.10,ENE,73,0.0,0.0,83,0.00,,SKC,0.01,VWS V13.00,2013-08-25 04:42:00,
2013-08-24 23:47:00,78.7,73.1,30.10,ENE,73,0.0,0.0,83,0.00,,SKC,0.01,VWS V13.00,2013-08-25 04:47:00,
2013-08-24 23:52:00,78.7,73.1,30.10,ENE,73,0.0,0.0,83,0.00,,SKC,0.01,VWS V13.00,2013-08-25 04:52:00,
2013-08-24 23:57:00,78.7,73.1,30.10,ENE,73,0.0,0.0,83,0.00,,SKC,0.01,VWS V13.00,2013-08-25 04:57:00,